Time;durP1;ratioP1;P1;durP2;ratioP2;P2;SDS_P1;SDS_P2;PMS_P1;PMS_P2;Temp;Humidity;BMP_temperature;BMP_pressure;BME280_temperature;BME280_humidity;BME280_pressure;Samples;Min_cycle;Max_cycle;Signal;HPM_P1;HPM_P2
2022/06/08 00:00:16;;;;;;;8.57;7.38;;;;;;;18.30;62.44;101001.25;5084885;28;20396;-66
2022/06/08 00:02:46;;;;;;;8.88;7.35;;;;;;;18.30;62.56;101008.59;5077307;28;20111;-67
2022/06/08 00:05:15;;;;;;;8.65;7.53;;;;;;;18.29;62.75;101012.41;5083531;28;20064;-67
2022/06/08 00:07:42;;;;;;;10.25;7.50;;;;;;;18.26;62.47;101008.31;5085480;28;20098;-66
2022/06/08 00:10:11;;;;;;;8.00;6.93;;;;;;;18.26;62.67;101002.88;5084208;28;20056;-65
2022/06/08 00:12:39;;;;;;;9.50;7.72;;;;;;;18.24;62.71;101005.06;5085060;28;20045;-67
2022/06/08 00:15:10;;;;;;;10.23;8.10;;;;;;;18.24;62.93;100998.78;5084119;28;20075;-66
2022/06/08 00:17:39;;;;;;;8.23;6.85;;;;;;;18.21;62.75;101000.97;5072551;28;20049;-67
2022/06/08 00:20:08;;;;;;;10.10;7.80;;;;;;;18.21;62.60;100998.25;5078840;28;20060;-65
2022/06/08 00:22:37;;;;;;;8.50;6.18;;;;;;;18.20;62.48;100993.91;5085449;28;20413;-66
2022/06/08 00:25:06;;;;;;;9.40;8.13;;;;;;;18.19;62.64;100994.16;5086305;28;20049;-67
2022/06/08 00:27:34;;;;;;;8.52;6.97;;;;;;;18.18;62.47;100982.47;5083061;28;20052;-67
2022/06/08 00:30:03;;;;;;;9.55;7.75;;;;;;;18.16;62.66;100992.78;5084743;28;20045;-67
2022/06/08 00:32:32;;;;;;;9.18;7.60;;;;;;;18.16;62.73;100990.06;5085039;28;20170;-66
2022/06/08 00:35:00;;;;;;;10.15;8.70;;;;;;;18.12;62.69;100980.81;5081250;28;20044;-67
2022/06/08 00:37:28;;;;;;;10.70;8.32;;;;;;;18.13;62.79;100987.88;5083693;28;20048;-67
2022/06/08 00:39:56;;;;;;;9.18;8.15;;;;;;;18.12;62.74;100980.00;5081299;28;20473;-65
2022/06/08 00:42:25;;;;;;;10.02;8.85;;;;;;;18.10;62.72;100972.09;5083505;28;20055;-66
2022/06/08 00:44:56;;;;;;;11.93;9.13;;;;;;;18.11;62.80;100972.94;5084372;28;20080;-67
2022/06/08 00:47:30;;;;;;;9.98;8.48;;;;;;;18.10;62.91;100968.56;5077035;28;20080;-67
2022/06/08 00:50:01;;;;;;;11.55;8.65;;;;;;;18.09;62.91;100964.22;5078016;28;20045;-67
2022/06/08 00:52:30;;;;;;;8.40;7.55;;;;;;;18.08;62.55;100960.69;5084714;28;20045;-66
2022/06/08 00:55:01;;;;;;;8.43;7.53;;;;;;;18.08;62.53;100968.84;5082736;28;20072;-67
2022/06/08 00:57:32;;;;;;;12.10;8.73;;;;;;;18.04;62.57;100956.03;5086899;28;20044;-66
2022/06/08 01:00:05;;;;;;;9.00;8.10;;;;;;;18.05;62.30;100969.38;5084204;28;20048;-67
2022/06/08 01:02:33;;;;;;;10.07;7.90;;;;;;;18.05;62.66;100961.22;5073403;28;20079;-67
2022/06/08 01:05:21;;;;;;;10.07;8.32;;;;;;;18.04;62.57;100959.59;5075785;28;20076;-66
2022/06/08 01:07:51;;;;;;;7.95;7.15;;;;;;;17.99;62.36;100954.13;5077470;28;20095;-66
2022/06/08 01:10:22;;;;;;;8.05;7.22;;;;;;;18.02;62.34;100953.59;5084537;28;20067;-67
2022/06/08 01:12:51;;;;;;;9.82;7.25;;;;;;;18.01;62.51;100951.16;5081039;28;20072;-66
2022/06/08 01:15:23;;;;;;;10.10;8.45;;;;;;;18.00;62.30;100952.22;5083761;28;20076;-67
2022/06/08 01:17:51;;;;;;;9.85;7.90;;;;;;;17.98;62.53;100944.34;5079847;28;20072;-67
2022/06/08 01:20:21;;;;;;;9.25;8.15;;;;;;;17.98;62.37;100943.53;5083132;28;20091;-67
2022/06/08 01:22:50;;;;;;;8.80;7.30;;;;;;;17.97;62.16;100933.72;5073010;28;20120;-66
2022/06/08 01:25:18;;;;;;;8.95;6.80;;;;;;;17.96;62.20;100935.63;5081211;28;20147;-66
2022/06/08 01:27:57;;;;;;;9.07;7.97;;;;;;;17.95;62.39;100930.47;5082891;28;20056;-66
2022/06/08 01:30:30;;;;;;;7.88;6.45;;;;;;;17.95;62.13;100933.19;5084051;28;20088;-67
2022/06/08 01:33:22;;;;;;;8.90;6.97;;;;;;;17.92;62.20;100923.66;5081628;28;20044;-66
2022/06/08 01:36:01;;;;;;;8.70;6.90;;;;;;;17.92;62.23;100920.13;5074634;28;20064;-67
2022/06/08 01:38:39;;;;;;;8.60;7.07;;;;;;;17.89;62.33;100905.97;5080430;28;20166;-66
2022/06/08 01:41:22;;;;;;;8.77;7.45;;;;;;;17.88;62.42;100914.41;5075656;28;20091;-67
2022/06/08 01:44:10;;;;;;;7.68;6.25;;;;;;;17.86;62.21;100911.13;5081356;28;20053;-66
2022/06/08 01:46:43;;;;;;;7.93;6.10;;;;;;;17.86;62.32;100911.13;5074175;28;20072;-67
2022/06/08 01:49:28;;;;;;;7.43;6.10;;;;;;;17.83;62.16;100903.50;5076650;28;20040;-66
2022/06/08 01:52:12;;;;;;;8.88;6.13;;;;;;;17.81;62.34;100892.91;5080851;28;20068;-66
2022/06/08 01:54:58;;;;;;;6.93;5.55;;;;;;;17.80;62.25;100885.84;5074599;28;20510;-67
2022/06/08 01:57:36;;;;;;;8.35;6.45;;;;;;;17.78;62.26;100890.72;5079838;28;20080;-67
2022/06/08 02:00:07;;;;;;;7.65;5.68;;;;;;;17.77;62.36;100882.84;5078650;28;20084;-66
2022/06/08 02:02:42;;;;;;;6.57;5.65;;;;;;;17.76;62.28;100871.16;5076151;28;20075;-67
2022/06/08 02:05:17;;;;;;;7.43;5.75;;;;;;;17.76;62.28;100881.22;5083573;28;20049;-66
2022/06/08 02:07:50;;;;;;;5.97;5.10;;;;;;;17.73;62.23;100874.41;5073138;28;20051;-66
2022/06/08 02:10:24;;;;;;;7.40;5.32;;;;;;;17.72;62.10;100867.34;5082065;28;20076;-66
2022/06/08 02:12:59;;;;;;;6.68;5.47;;;;;;;17.72;62.37;100858.38;5082288;28;20072;-64
2022/06/08 02:15:34;;;;;;;6.32;4.93;;;;;;;17.71;62.08;100856.72;5080448;28;20447;-66
2022/06/08 02:18:10;;;;;;;5.85;5.18;;;;;;;17.69;62.34;100840.69;5083602;28;20059;-66
2022/06/08 02:20:44;;;;;;;7.65;5.13;;;;;;;17.68;62.21;100838.25;5076382;28;20059;-66
2022/06/08 02:23:15;;;;;;;6.72;5.28;;;;;;;17.66;62.36;100838.50;5075592;28;20048;-66
2022/06/08 02:25:47;;;;;;;6.53;5.20;;;;;;;17.65;62.41;100830.59;5077363;28;20045;-66
2022/06/08 02:28:22;;;;;;;6.20;5.20;;;;;;;17.65;62.56;100831.41;5069367;28;20048;-66
2022/06/08 02:30:54;;;;;;;6.55;4.85;;;;;;;17.64;62.33;100828.97;5076068;28;20044;-66
2022/06/08 02:36:16;;;;;;;5.82;5.13;;;;;;;17.62;62.36;100820.25;5080803;28;20682;-67
2022/06/08 02:38:51;;;;;;;5.70;4.63;;;;;;;17.62;62.29;100814.81;5075288;28;20068;-66
2022/06/08 02:41:23;;;;;;;5.25;4.53;;;;;;;17.60;62.34;100812.38;5072471;28;20045;-67
2022/06/08 02:43:56;;;;;;;6.95;5.35;;;;;;;17.60;62.33;100815.09;5081817;28;20548;-67
2022/06/08 02:46:30;;;;;;;5.47;4.80;;;;;;;17.60;62.47;100817.00;5082160;28;20048;-67
2022/06/08 02:49:04;;;;;;;6.43;4.28;;;;;;;17.58;62.26;100817.25;5082973;28;20048;-67
2022/06/08 02:51:32;;;;;;;5.75;5.13;;;;;;;17.57;62.60;100813.72;5079203;28;20049;-66
2022/06/08 02:54:04;;;;;;;5.20;4.10;;;;;;;17.56;62.42;100817.53;5079188;28;20076;-67
2022/06/08 02:56:58;;;;;;;6.28;4.78;;;;;;;17.55;62.50;100813.19;5085136;28;20083;-66
2022/06/08 02:59:31;;;;;;;5.03;4.10;;;;;;;17.55;62.36;100812.38;5081114;28;20074;-66
2022/06/08 03:02:05;;;;;;;5.30;4.03;;;;;;;17.54;62.31;100817.00;5080608;28;20060;-67
2022/06/08 03:04:40;;;;;;;5.45;4.15;;;;;;;17.53;62.14;100807.19;5083226;28;20151;-66
2022/06/08 03:07:14;;;;;;;4.90;4.00;;;;;;;17.52;62.05;100799.31;5081807;28;20040;-66
2022/06/08 03:09:43;;;;;;;4.70;3.65;;;;;;;17.52;62.22;100807.47;5077361;28;20064;-67
2022/06/08 03:12:19;;;;;;;4.50;3.65;;;;;;;17.51;62.32;100800.41;5080747;28;20581;-66
2022/06/08 03:14:48;;;;;;;4.75;3.80;;;;;;;17.50;62.23;100796.88;5077849;28;20085;-66
2022/06/08 03:17:27;;;;;;;5.95;3.63;;;;;;;17.49;62.19;100795.25;5074934;28;20047;-66
2022/06/08 03:19:55;;;;;;;4.22;3.47;;;;;;;17.48;62.09;100799.03;5079748;28;20075;-67
2022/06/08 03:22:23;;;;;;;5.28;3.60;;;;;;;17.47;62.12;100788.44;5080083;28;20049;-66
2022/06/08 03:24:52;;;;;;;5.57;3.63;;;;;;;17.45;62.10;100787.88;5084100;28;20087;-67
2022/06/08 03:27:21;;;;;;;7.15;3.50;;;;;;;17.45;62.16;100791.44;5082011;28;20044;-66
2022/06/08 03:29:49;;;;;;;4.57;3.08;;;;;;;17.44;62.12;100789.78;5081192;28;20111;-67
2022/06/08 03:32:22;;;;;;;6.47;3.60;;;;;;;17.42;62.26;100788.44;5080104;28;20044;-66
2022/06/08 03:34:49;;;;;;;6.50;3.20;;;;;;;17.40;62.34;100782.44;5075948;28;20072;-67
2022/06/08 03:37:17;;;;;;;3.72;3.17;;;;;;;17.40;62.23;100782.44;5084960;28;20128;-67
2022/06/08 03:39:45;;;;;;;7.45;3.63;;;;;;;17.35;62.39;100779.72;5084490;28;20079;-66
2022/06/08 03:42:12;;;;;;;3.90;3.20;;;;;;;17.37;62.26;100781.09;5083878;28;20056;-67
2022/06/08 03:44:41;;;;;;;3.63;2.88;;;;;;;17.37;62.37;100791.94;5084950;28;20051;-67
2022/06/08 03:47:12;;;;;;;4.35;2.92;;;;;;;17.36;62.43;100793.03;5073904;28;20072;-67
2022/06/08 03:49:40;;;;;;;3.60;2.90;;;;;;;17.35;62.36;100798.72;5086062;28;20163;-67
2022/06/08 03:52:13;;;;;;;4.85;3.20;;;;;;;17.34;62.41;100794.38;5076898;28;20128;-67
2022/06/08 03:54:46;;;;;;;4.15;3.00;;;;;;;17.33;62.40;100790.88;5077804;28;20087;-66
2022/06/08 03:57:14;;;;;;;5.32;2.63;;;;;;;17.33;62.33;100795.50;5084189;28;20104;-65
2022/06/08 03:59:47;;;;;;;4.80;3.20;;;;;;;17.31;62.40;100793.06;5080416;28;20053;-67
2022/06/08 04:02:15;;;;;;;4.53;2.97;;;;;;;17.31;62.39;100795.78;5085723;28;20056;-66
2022/06/08 04:04:44;;;;;;;4.35;2.63;;;;;;;17.30;62.42;100785.16;5080688;28;20074;-65
2022/06/08 04:07:12;;;;;;;6.80;3.25;;;;;;;17.30;62.52;100786.00;5082996;28;20068;-66
2022/06/08 04:09:39;;;;;;;4.43;2.78;;;;;;;17.30;62.53;100785.16;5077947;28;20098;-66
2022/06/08 04:12:08;;;;;;;4.28;2.55;;;;;;;17.28;62.51;100781.91;5083694;28;20087;-66
2022/06/08 04:14:37;;;;;;;3.38;2.47;;;;;;;17.27;62.45;100778.38;5084809;28;20080;-67
2022/06/08 04:17:07;;;;;;;4.38;2.50;;;;;;;17.27;62.61;100783.00;4717540;28;10000397;-67
2022/06/08 04:19:35;;;;;;;2.97;2.40;;;;;;;17.27;62.50;100786.53;5082547;28;20059;-67
2022/06/08 04:22:03;;;;;;;3.45;2.53;;;;;;;17.26;62.48;100784.88;5080444;28;20048;-66
2022/06/08 04:24:31;;;;;;;3.78;2.38;;;;;;;17.25;62.46;100777.81;5079605;28;20060;-66
2022/06/08 04:27:03;;;;;;;3.17;2.40;;;;;;;17.26;62.32;100784.88;5077043;28;20044;-65
2022/06/08 04:29:31;;;;;;;3.45;2.25;;;;;;;17.25;62.26;100775.09;5081491;28;20071;-66
2022/06/08 04:31:59;;;;;;;3.50;2.67;;;;;;;17.24;62.23;100774.28;5085019;28;20052;-67
2022/06/08 04:34:28;;;;;;;4.20;2.30;;;;;;;17.24;62.23;100779.72;5081580;28;20036;-66
2022/06/08 04:36:56;;;;;;;2.95;2.30;;;;;;;17.23;62.26;100772.66;5081190;28;20072;-65
2022/06/08 04:39:24;;;;;;;4.15;2.60;;;;;;;17.24;62.21;100773.47;5075110;28;20051;-66
2022/06/08 04:41:51;;;;;;;3.15;2.22;;;;;;;17.23;62.20;100772.66;5083601;28;20064;-66
2022/06/08 04:44:19;;;;;;;2.92;2.17;;;;;;;17.22;62.12;100764.78;5078056;28;20079;-66
2022/06/08 04:46:47;;;;;;;2.85;2.38;;;;;;;17.22;62.10;100764.78;5076281;28;20050;-66
2022/06/08 04:49:15;;;;;;;2.60;2.00;;;;;;;17.21;61.98;100761.25;5077565;28;20057;-66
2022/06/08 04:51:45;;;;;;;2.97;2.08;;;;;;;17.23;62.02;100760.97;5078284;28;20044;-66
2022/06/08 04:54:12;;;;;;;2.33;2.10;;;;;;;17.22;61.92;100759.34;5078757;28;20078;-66
2022/06/08 04:56:40;;;;;;;3.53;2.50;;;;;;;17.22;61.95;100757.44;5076829;28;20072;-65
2022/06/08 04:59:09;;;;;;;2.58;2.17;;;;;;;17.21;61.88;100755.00;5080949;28;20044;-67
2022/06/08 05:01:36;;;;;;;2.42;1.77;;;;;;;17.22;61.96;100752.00;5078465;28;20112;-67
2022/06/08 05:04:05;;;;;;;2.55;1.80;;;;;;;17.21;61.91;100739.53;5081450;28;20049;-67
2022/06/08 05:06:32;;;;;;;2.17;1.65;;;;;;;17.21;61.91;100752.28;5084023;28;20064;-66
2022/06/08 05:09:01;;;;;;;3.97;1.90;;;;;;;17.21;61.76;100749.56;5081081;28;20048;-67
2022/06/08 05:11:29;;;;;;;4.28;1.98;;;;;;;17.21;62.07;100746.84;5080720;28;20194;-63
2022/06/08 05:13:57;;;;;;;2.72;2.03;;;;;;;17.21;61.87;100744.13;5079527;28;20044;-67
2022/06/08 05:16:25;;;;;;;2.75;1.85;;;;;;;17.21;61.79;100736.00;5080570;28;20056;-67
2022/06/08 05:18:52;;;;;;;3.17;2.00;;;;;;;17.21;61.78;100728.66;5081200;28;20059;-66
2022/06/08 05:21:20;;;;;;;2.97;1.80;;;;;;;17.21;61.85;100730.56;4720461;28;10000442;-67
2022/06/08 05:23:49;;;;;;;4.45;2.78;;;;;;;17.21;61.77;100734.09;5075180;28;20101;-66
2022/06/08 05:26:18;;;;;;;3.05;1.83;;;;;;;17.21;61.90;100731.38;5071722;28;20399;-65
2022/06/08 05:28:46;;;;;;;3.42;1.80;;;;;;;17.22;61.77;100732.19;5078624;28;20556;-66
2022/06/08 05:31:14;;;;;;;3.17;1.70;;;;;;;17.22;61.77;100724.03;5077029;28;20075;-66
2022/06/08 05:33:44;;;;;;;4.03;1.85;;;;;;;17.21;61.94;100712.34;5076182;28;20048;-66
2022/06/08 05:36:12;;;;;;;2.03;1.77;;;;;;;17.21;61.86;100715.06;5080611;28;20154;-65
2022/06/08 05:38:39;;;;;;;2.65;1.92;;;;;;;17.20;61.97;100705.28;5076339;28;20067;-67
2022/06/08 05:41:07;;;;;;;3.03;1.77;;;;;;;17.20;62.11;100705.28;5070351;28;20056;-66
2022/06/08 05:43:36;;;;;;;2.45;1.67;;;;;;;17.20;61.92;100704.47;5078879;28;20060;-66
2022/06/08 05:46:04;;;;;;;3.00;1.80;;;;;;;17.20;61.83;100693.63;5070621;28;20052;-64
2022/06/08 05:48:32;;;;;;;3.58;2.10;;;;;;;17.20;62.17;100693.63;5077269;28;20459;-67
2022/06/08 05:51:00;;;;;;;2.35;1.75;;;;;;;17.20;62.01;100693.63;5076127;28;20076;-68
2022/06/08 05:53:27;;;;;;;2.70;1.85;;;;;;;17.20;62.18;100690.91;5073975;28;20076;-66
2022/06/08 05:55:55;;;;;;;3.75;2.35;;;;;;;17.20;62.18;100686.28;5077458;28;20075;-65
2022/06/08 05:58:23;;;;;;;3.67;1.77;;;;;;;17.20;62.12;100685.47;5078369;28;20045;-64
2022/06/08 06:00:52;;;;;;;4.40;1.95;;;;;;;17.21;62.17;100681.66;5078104;28;20178;-66
2022/06/08 06:03:20;;;;;;;6.57;2.10;;;;;;;17.20;61.94;100678.13;5079182;28;20128;-67
2022/06/08 06:05:48;;;;;;;1.98;1.45;;;;;;;17.24;61.96;100667.56;5071370;28;20499;-65
2022/06/08 06:08:16;;;;;;;3.03;1.88;;;;;;;17.22;62.06;100670.53;5080149;28;20055;-65
2022/06/08 06:10:46;;;;;;;3.10;1.70;;;;;;;17.23;62.18;100669.44;5080353;28;20095;-67
2022/06/08 06:13:14;;;;;;;3.30;1.60;;;;;;;17.22;62.12;100672.44;5084217;28;20048;-67
2022/06/08 06:15:41;;;;;;;3.53;1.70;;;;;;;17.22;62.17;100678.69;5076408;28;20080;-66
2022/06/08 06:18:16;;;;;;;3.40;1.80;;;;;;;17.23;62.58;100679.50;5083502;28;20076;-67
2022/06/08 06:20:44;;;;;;;3.65;1.35;;;;;;;17.24;62.06;100681.94;5084169;28;20060;-65
2022/06/08 06:23:13;;;;;;;1.83;1.52;;;;;;;17.25;62.32;100688.19;5083915;28;20129;-66
2022/06/08 06:25:40;;;;;;;2.95;1.55;;;;;;;17.26;62.27;100686.28;5083990;28;20063;-67
2022/06/08 06:28:08;;;;;;;2.40;1.65;;;;;;;17.26;62.33;100684.38;4732632;28;10000170;-65
2022/06/08 06:30:36;;;;;;;2.53;1.40;;;;;;;17.28;62.33;100692.28;5077636;28;20163;-65
2022/06/08 06:33:04;;;;;;;2.17;1.70;;;;;;;17.28;62.44;100693.09;5076487;28;20079;-66
2022/06/08 06:35:33;;;;;;;1.83;1.35;;;;;;;17.28;62.55;100686.84;5072186;28;20075;-66
2022/06/08 06:38:04;;;;;;;2.22;1.45;;;;;;;17.29;62.57;100680.31;5085029;28;20074;-65
2022/06/08 06:40:32;;;;;;;3.30;1.70;;;;;;;17.29;62.62;100686.56;5069409;28;20049;-65
2022/06/08 06:43:00;;;;;;;4.30;1.70;;;;;;;17.30;62.73;100684.66;5080086;28;20068;-65
2022/06/08 06:45:29;;;;;;;5.50;1.60;;;;;;;17.30;62.67;100680.03;5079019;28;20044;-66
2022/06/08 06:47:56;;;;;;;1.80;1.40;;;;;;;17.30;62.86;100688.19;5082382;28;20464;-65
2022/06/08 06:50:25;;;;;;;2.38;1.48;;;;;;;17.31;62.90;100676.25;5072204;28;20055;-66
2022/06/08 06:52:54;;;;;;;2.90;1.40;;;;;;;17.31;62.81;100673.53;5083190;28;20052;-65
2022/06/08 06:55:25;;;;;;;3.13;1.83;;;;;;;17.32;62.99;100671.63;5075881;28;20131;-68
2022/06/08 06:57:54;;;;;;;2.65;1.40;;;;;;;17.34;63.25;100669.44;5070190;28;20048;-65
2022/06/08 07:00:22;;;;;;;5.70;1.88;;;;;;;17.36;63.69;100673.50;5069329;28;20064;-66
2022/06/08 07:02:50;;;;;;;4.05;1.70;;;;;;;17.36;62.95;100668.06;5079923;28;20529;-65
2022/06/08 07:05:21;;;;;;;1.35;1.25;;;;;;;17.38;63.28;100665.91;5070630;28;20677;-66
2022/06/08 07:07:49;;;;;;;1.73;1.38;;;;;;;17.36;63.35;100659.91;5080279;28;20055;-65
2022/06/08 07:10:18;;;;;;;3.28;1.40;;;;;;;17.40;63.53;100669.16;5073334;28;20558;-65
2022/06/08 07:12:47;;;;;;;3.25;1.48;;;;;;;17.50;64.13;100665.63;5076741;28;20080;-67
2022/06/08 07:15:17;;;;;;;2.53;1.35;;;;;;;17.56;63.63;100661.81;5074691;28;20083;-67
2022/06/08 07:17:45;;;;;;;4.60;1.52;;;;;;;17.50;63.67;100661.00;5080164;28;20108;-64
2022/06/08 07:20:14;;;;;;;4.47;1.85;;;;;;;17.47;63.94;100656.13;5079860;28;20057;-67
2022/06/08 07:22:41;;;;;;;3.47;1.80;;;;;;;17.46;64.11;100654.50;5087536;28;20047;-67
2022/06/08 07:25:10;;;;;;;1.67;1.15;;;;;;;17.48;63.92;100655.03;5083412;28;20076;-66
2022/06/08 07:27:40;;;;;;;2.15;1.40;;;;;;;17.47;63.91;100656.13;5073542;28;20134;-67
2022/06/08 07:30:09;;;;;;;2.72;1.38;;;;;;;17.46;63.98;100654.50;5083320;28;20087;-66
2022/06/08 07:32:37;;;;;;;2.92;1.27;;;;;;;17.45;64.08;100643.88;5076041;28;20066;-65
2022/06/08 07:35:08;;;;;;;2.25;1.63;;;;;;;17.44;63.86;100645.78;5081165;28;20049;-67
2022/06/08 07:37:36;;;;;;;4.97;1.40;;;;;;;17.46;64.23;100648.25;5082547;28;20107;-68
2022/06/08 07:40:04;;;;;;;1.55;1.10;;;;;;;17.45;64.18;100644.72;5076427;28;20087;-68
2022/06/08 07:42:32;;;;;;;2.80;1.35;;;;;;;17.47;64.15;100644.44;5081091;28;20484;-67
2022/06/08 07:45:01;;;;;;;3.88;1.58;;;;;;;17.46;64.31;100643.63;5091660;28;20091;-67
2022/06/08 07:47:29;;;;;;;5.65;1.98;;;;;;;17.48;64.27;100644.16;5086322;28;20060;-66
2022/06/08 07:49:56;;;;;;;3.38;2.08;;;;;;;17.49;64.36;100642.25;5087733;28;20346;-66
2022/06/08 07:52:23;;;;;;;2.03;1.15;;;;;;;17.50;64.19;100646.59;5076479;28;20082;-66
2022/06/08 07:54:51;;;;;;;2.70;1.30;;;;;;;17.50;64.32;100638.44;5078625;28;20650;-67
2022/06/08 07:57:23;;;;;;;5.40;1.70;;;;;;;17.50;64.46;100646.59;5085585;28;20048;-67
2022/06/08 07:59:51;;;;;;;3.40;1.40;;;;;;;17.51;64.33;100649.06;5085787;28;20074;-67
2022/06/08 08:02:20;;;;;;;4.57;1.45;;;;;;;17.52;64.24;100656.13;5085045;28;20140;-67
2022/06/08 08:04:48;;;;;;;3.53;1.60;;;;;;;17.54;64.25;100653.13;5085049;28;20090;-67
2022/06/08 08:07:16;;;;;;;5.35;1.40;;;;;;;17.54;64.28;100659.38;5086709;28;20099;-67
2022/06/08 08:09:44;;;;;;;4.07;1.70;;;;;;;17.55;64.34;100655.56;5086170;28;20044;-67
2022/06/08 08:12:12;;;;;;;3.33;1.15;;;;;;;17.55;64.35;100650.13;5086380;28;20075;-67
2022/06/08 08:14:41;;;;;;;7.07;1.70;;;;;;;17.57;64.23;100649.88;5078080;28;20052;-67
2022/06/08 08:17:09;;;;;;;2.30;1.45;;;;;;;17.57;64.26;100647.97;5078918;28;20048;-67
2022/06/08 08:19:39;;;;;;;1.92;1.33;;;;;;;17.58;64.21;100649.59;5085595;28;20108;-66
2022/06/08 08:22:09;;;;;;;3.53;1.80;;;;;;;17.56;64.30;100646.34;5084882;28;20117;-67
2022/06/08 08:24:37;;;;;;;4.65;1.38;;;;;;;17.62;64.56;100649.84;5085952;28;20044;-67
2022/06/08 08:27:05;;;;;;;2.72;1.70;;;;;;;17.63;64.64;100653.38;5072355;28;20067;-67
2022/06/08 08:29:33;;;;;;;4.90;1.70;;;;;;;17.63;64.67;100646.06;5077759;28;20053;-67
2022/06/08 08:32:01;;;;;;;4.20;1.40;;;;;;;17.64;64.62;100649.59;5082926;28;20059;-67
2022/06/08 08:34:29;;;;;;;4.72;1.35;;;;;;;17.61;64.33;100648.22;5085834;28;20135;-67
2022/06/08 08:36:58;;;;;;;2.97;1.52;;;;;;;17.64;64.42;100642.25;5074467;28;20049;-67
2022/06/08 08:39:26;;;;;;;2.97;1.42;;;;;;;17.65;64.39;100646.59;5085538;28;20068;-67
2022/06/08 08:44:41;;;;;;;4.32;1.50;;;;;;;17.66;64.60;100642.81;5075844;28;20056;-67
2022/06/08 08:47:16;;;;;;;4.97;1.52;;;;;;;17.68;64.51;100645.25;5079416;28;20174;-66
2022/06/08 08:49:52;;;;;;;5.13;1.73;;;;;;;17.66;64.40;100640.09;5079269;28;20045;-67
2022/06/08 08:52:32;;;;;;;6.03;1.97;;;;;;;17.68;64.56;100639.81;5083190;28;20075;-67
2022/06/08 08:55:05;;;;;;;5.35;1.50;;;;;;;17.69;64.43;100642.28;5084636;28;20310;-66
2022/06/08 08:57:42;;;;;;;4.25;1.20;;;;;;;17.70;64.62;100646.63;5081556;28;20056;-67
2022/06/08 09:00:18;;;;;;;4.72;1.50;;;;;;;17.72;64.78;100641.72;5084705;28;20048;-67
2022/06/08 09:05:33;;;;;;;4.60;1.50;;;;;;;17.72;64.59;100646.34;5084591;28;20516;-64
2022/06/08 09:08:02;;;;;;;5.57;1.65;;;;;;;17.72;64.60;100651.78;5072790;28;20111;-67
2022/06/08 09:10:29;;;;;;;7.78;1.48;;;;;;;17.72;64.59;100649.88;5085410;28;20080;-67
2022/06/08 09:12:58;;;;;;;2.70;1.52;;;;;;;17.74;65.01;100646.88;5085319;28;20576;-67
2022/06/08 09:15:47;;;;;;;4.88;1.50;;;;;;;17.74;64.86;100647.69;5079689;28;20045;-67
2022/06/08 09:18:40;;;;;;;6.65;2.42;;;;;;;17.76;65.20;100650.97;5073246;28;20051;-67
2022/06/08 09:21:29;;;;;;;2.58;1.25;;;;;;;17.78;64.88;100650.69;5082517;28;20053;-67
2022/06/08 09:24:01;;;;;;;2.67;1.30;;;;;;;17.80;64.97;100645.78;5073857;28;20576;-68
2022/06/08 09:26:35;;;;;;;3.53;1.65;;;;;;;17.79;64.97;100647.69;5081557;28;20056;-67
2022/06/08 09:29:13;;;;;;;8.70;2.70;;;;;;;17.77;64.92;100652.59;5075447;28;20088;-68
2022/06/08 09:31:42;;;;;;;5.30;1.92;;;;;;;17.77;65.02;100652.59;5083547;28;20044;-68
2022/06/08 09:34:20;;;;;;;3.72;2.05;;;;;;;17.77;64.92;100647.16;5077609;28;20054;-68
2022/06/08 09:37:11;;;;;;;3.92;1.50;;;;;;;17.77;64.84;100649.88;5084723;28;20083;-68
2022/06/08 09:39:44;;;;;;;3.78;1.50;;;;;;;17.77;64.93;100655.31;5084159;28;20045;-67
2022/06/08 09:42:35;;;;;;;8.50;2.13;;;;;;;17.74;65.47;100655.03;5078460;28;20049;-66
2022/06/08 09:45:07;;;;;;;6.22;1.80;;;;;;;17.76;65.53;100652.88;5084050;28;20480;-68
2022/06/08 09:53:36;;;;;;;7.45;2.15;;;;;;;17.77;65.74;100660.75;5077430;28;20052;-68
2022/06/08 09:56:15;;;;;;;7.38;2.83;;;;;;;17.77;65.96;100659.94;5081714;28;20045;-68
2022/06/08 09:58:56;;;;;;;4.43;1.65;;;;;;;17.76;65.69;100656.41;5083344;28;20048;-68
2022/06/08 10:01:34;;;;;;;4.03;1.60;;;;;;;17.76;65.79;100661.84;5082586;28;20052;-68
2022/06/08 10:04:23;;;;;;;5.97;1.90;;;;;;;17.75;65.69;100653.94;5083311;28;20048;-67
2022/06/08 10:07:16;;;;;;;8.20;1.90;;;;;;;17.74;65.58;100657.75;5076992;28;20052;-68
2022/06/08 10:10:07;;;;;;;6.43;2.00;;;;;;;17.74;65.68;100657.75;5070812;28;20072;-68
2022/06/08 10:12:45;;;;;;;8.60;2.63;;;;;;;17.74;65.92;100664.00;5082475;28;20072;-68
2022/06/08 10:15:24;;;;;;;6.20;1.65;;;;;;;17.75;65.72;100656.66;5076094;28;20057;-67
2022/06/08 10:17:58;;;;;;;4.07;1.90;;;;;;;17.73;65.86;100659.66;5071389;28;20048;-66
2022/06/08 10:20:34;;;;;;;5.75;1.90;;;;;;;17.74;65.75;100664.00;5081457;28;20052;-67
2022/06/08 10:23:12;;;;;;;7.93;1.87;;;;;;;17.72;65.28;100660.75;5073505;28;20044;-67
2022/06/08 10:25:44;;;;;;;5.15;1.90;;;;;;;17.73;65.59;100662.38;5083375;28;20047;-68
2022/06/08 10:28:20;;;;;;;4.85;1.48;;;;;;;17.73;65.57;100669.72;5080307;28;20089;-67
2022/06/08 10:30:55;;;;;;;6.18;2.15;;;;;;;17.73;65.86;100662.38;5080181;28;20071;-68
2022/06/08 10:33:30;;;;;;;6.30;2.55;;;;;;;17.72;65.71;100658.03;5083564;28;20049;-68
2022/06/08 10:35:59;;;;;;;3.07;1.33;;;;;;;17.73;65.74;100654.22;5064326;28;20048;-68
2022/06/08 10:38:30;;;;;;;4.22;1.70;;;;;;;17.74;65.58;100657.75;5077835;28;20079;-68
2022/06/08 10:41:02;;;;;;;5.38;2.50;;;;;;;17.74;65.71;100657.75;5083462;28;20072;-68
2022/06/08 10:43:34;;;;;;;4.22;1.73;;;;;;;17.74;65.70;100652.31;5083374;28;20044;-67
2022/06/08 10:46:04;;;;;;;8.60;2.20;;;;;;;17.74;65.90;100660.47;5080276;28;20052;-67
2022/06/08 10:48:46;;;;;;;7.18;1.70;;;;;;;17.71;65.75;100650.16;5084060;28;20055;-67
2022/06/08 10:51:22;;;;;;;;;;;;;;;17.75;65.88;100656.66;5072763;28;20080;-67
2022/06/08 10:56:57;;;;;;;6.82;1.88;;;;;;;17.74;66.05;100649.59;5083724;28;20183;-67
2022/06/08 10:59:29;;;;;;;3.47;1.55;;;;;;;17.74;65.92;100652.31;5082573;28;20055;-68
2022/06/08 11:02:22;;;;;;;4.30;1.63;;;;;;;17.75;65.73;100651.22;5079801;28;20049;-68
2022/06/08 11:04:56;;;;;;;6.00;1.50;;;;;;;17.74;65.87;100644.16;5081006;28;20084;-67
2022/06/08 11:07:24;;;;;;;5.97;1.98;;;;;;;17.75;65.77;100640.38;4372615;28;10001476;-67
2022/06/08 11:10:00;;;;;;;8.02;1.73;;;;;;;17.74;65.67;100639.53;5067697;28;20045;-67
2022/06/08 11:13:05;;;;;;;4.78;1.55;;;;;;;17.75;65.56;100629.50;5067399;28;20076;-66
2022/06/08 11:15:54;;;;;;;4.60;1.60;;;;;;;17.74;65.77;100634.09;5068861;28;20044;-67
2022/06/08 11:18:28;;;;;;;6.05;1.60;;;;;;;17.74;65.87;100625.13;5076210;28;20154;-66
2022/06/08 11:21:06;;;;;;;5.40;1.67;;;;;;;17.73;66.22;100623.50;5074224;28;20056;-69
2022/06/08 11:23:40;;;;;;;7.40;2.30;;;;;;;17.72;66.12;100619.16;5083443;28;20084;-66
2022/06/08 11:26:25;;;;;;;7.20;1.77;;;;;;;17.71;65.93;100621.06;5075441;28;20052;-67
2022/06/08 11:28:58;;;;;;;7.30;2.28;;;;;;;17.70;66.19;100610.47;5071633;28;20540;-67
2022/06/08 11:31:52;;;;;;;6.20;1.70;;;;;;;17.72;66.13;100608.28;5070229;28;20078;-67
2022/06/08 11:34:51;;;;;;;6.97;2.92;;;;;;;17.71;65.98;100607.47;5076503;28;20068;-67
2022/06/08 11:37:32;;;;;;;6.93;2.00;;;;;;;17.71;65.98;100606.66;5076126;28;20055;-66
2022/06/08 11:40:10;;;;;;;6.57;1.70;;;;;;;17.71;66.22;100607.47;5074407;28;20124;-67
2022/06/08 11:42:49;;;;;;;4.22;1.63;;;;;;;17.71;66.29;100599.31;5074881;28;20190;-68
2022/06/08 11:45:20;;;;;;;10.10;2.22;;;;;;;17.72;66.50;100592.78;5073084;28;20049;-68
2022/06/08 11:47:54;;;;;;;7.00;2.05;;;;;;;17.72;66.43;100592.78;4368823;28;10000796;-67
2022/06/08 11:50:25;;;;;;;8.77;2.08;;;;;;;17.74;66.48;100595.25;5075559;28;20415;-67
2022/06/08 11:52:59;;;;;;;15.95;2.50;;;;;;;17.72;66.24;100590.09;5074374;28;20071;-67
2022/06/08 11:55:30;;;;;;;10.70;2.42;;;;;;;17.72;66.25;100581.94;5081664;28;20044;-67
2022/06/08 11:58:16;;;;;;;13.88;2.17;;;;;;;17.71;66.38;100585.72;5078110;28;20044;-67
2022/06/08 12:00:53;;;;;;;18.45;3.25;;;;;;;17.70;66.49;100581.38;5081423;28;20106;-67
2022/06/08 12:03:27;;;;;;;20.27;2.63;;;;;;;17.71;66.30;100577.56;5080912;28;20433;-67